sensor_id;sensor_type;location;lat;lon;timestamp;P1;durP1;ratioP1;P2;durP2;ratioP2
9234;SDS011;4652;42.716;23.218;2023-02-26T04:18:35;7.63;;;3.93;;
9234;SDS011;4652;42.716;23.218;2023-02-26T04:25:18;8.33;;;3.67;;
9234;SDS011;4652;42.716;23.218;2023-02-26T04:32:00;8.70;;;3.90;;
9234;SDS011;4652;42.716;23.218;2023-02-26T04:38:43;12.63;;;4.37;;
9234;SDS011;4652;42.716;23.218;2023-02-26T04:45:25;9.80;;;3.97;;
9234;SDS011;4652;42.716;23.218;2023-02-26T04:52:07;9.37;;;3.73;;
9234;SDS011;4652;42.716;23.218;2023-02-26T04:58:50;10.43;;;3.57;;
9234;SDS011;4652;42.716;23.218;2023-02-26T05:05:32;10.97;;;3.90;;
9234;SDS011;4652;42.716;23.218;2023-02-26T05:12:14;8.23;;;3.20;;
9234;SDS011;4652;42.716;23.218;2023-02-26T05:18:58;10.63;;;4.23;;
9234;SDS011;4652;42.716;23.218;2023-02-26T05:25:40;14.73;;;3.10;;
9234;SDS011;4652;42.716;23.218;2023-02-26T05:32:22;10.30;;;3.03;;
9234;SDS011;4652;42.716;23.218;2023-02-26T05:39:05;13.77;;;2.83;;
9234;SDS011;4652;42.716;23.218;2023-02-26T05:45:48;9.27;;;3.77;;
9234;SDS011;4652;42.716;23.218;2023-02-26T05:52:30;14.23;;;3.17;;
9234;SDS011;4652;42.716;23.218;2023-02-26T05:59:14;16.87;;;3.60;;
9234;SDS011;4652;42.716;23.218;2023-02-26T06:05:56;7.67;;;2.40;;
9234;SDS011;4652;42.716;23.218;2023-02-26T06:12:38;9.10;;;2.97;;
9234;SDS011;4652;42.716;23.218;2023-02-26T06:19:21;12.87;;;2.83;;
9234;SDS011;4652;42.716;23.218;2023-02-26T06:26:03;7.13;;;2.80;;
9234;SDS011;4652;42.716;23.218;2023-02-26T06:32:46;9.73;;;3.10;;
9234;SDS011;4652;42.716;23.218;2023-02-26T06:39:30;11.40;;;3.37;;
9234;SDS011;4652;42.716;23.218;2023-02-26T06:46:12;7.90;;;2.70;;
9234;SDS011;4652;42.716;23.218;2023-02-26T06:52:54;15.23;;;3.33;;
9234;SDS011;4652;42.716;23.218;2023-02-26T06:59:38;9.73;;;2.67;;
9234;SDS011;4652;42.716;23.218;2023-02-26T07:06:19;7.93;;;2.83;;
9234;SDS011;4652;42.716;23.218;2023-02-26T07:13:02;11.00;;;3.17;;
9234;SDS011;4652;42.716;23.218;2023-02-26T07:19:45;13.43;;;2.87;;
9234;SDS011;4652;42.716;23.218;2023-02-26T07:26:28;8.80;;;2.83;;
9234;SDS011;4652;42.716;23.218;2023-02-26T07:33:10;13.50;;;3.67;;
9234;SDS011;4652;42.716;23.218;2023-02-26T07:39:53;13.37;;;3.23;;
9234;SDS011;4652;42.716;23.218;2023-02-26T07:46:35;12.30;;;2.90;;
9234;SDS011;4652;42.716;23.218;2023-02-26T07:53:17;10.87;;;2.67;;
9234;SDS011;4652;42.716;23.218;2023-02-26T08:00:00;7.10;;;2.60;;
9234;SDS011;4652;42.716;23.218;2023-02-26T08:08:04;9.10;;;3.37;;
9234;SDS011;4652;42.716;23.218;2023-02-26T14:25:14;7.33;;;2.73;;
9234;SDS011;4652;42.716;23.218;2023-02-26T14:32:11;11.43;;;3.20;;
9234;SDS011;4652;42.716;23.218;2023-02-26T14:38:56;10.90;;;3.80;;
9234;SDS011;4652;42.716;23.218;2023-02-26T14:45:44;10.00;;;3.43;;
9234;SDS011;4652;42.716;23.218;2023-02-26T14:52:41;8.43;;;2.97;;
9234;SDS011;4652;42.716;23.218;2023-02-26T14:59:42;11.67;;;3.67;;
9234;SDS011;4652;42.716;23.218;2023-02-26T15:06:47;13.80;;;3.80;;
9234;SDS011;4652;42.716;23.218;2023-02-26T15:13:44;9.40;;;3.80;;
9234;SDS011;4652;42.716;23.218;2023-02-26T15:20:39;8.07;;;3.60;;
9234;SDS011;4652;42.716;23.218;2023-02-26T15:27:30;13.33;;;4.57;;
9234;SDS011;4652;42.716;23.218;2023-02-26T15:34:14;13.07;;;3.97;;
9234;SDS011;4652;42.716;23.218;2023-02-26T15:40:57;18.50;;;4.50;;
9234;SDS011;4652;42.716;23.218;2023-02-26T15:47:45;10.93;;;5.37;;
9234;SDS011;4652;42.716;23.218;2023-02-26T15:54:32;13.63;;;4.63;;
9234;SDS011;4652;42.716;23.218;2023-02-26T16:01:17;13.53;;;4.30;;
9234;SDS011;4652;42.716;23.218;2023-02-26T16:08:02;8.23;;;4.10;;
9234;SDS011;4652;42.716;23.218;2023-02-26T16:14:45;11.70;;;4.43;;
9234;SDS011;4652;42.716;23.218;2023-02-26T16:21:33;10.80;;;4.73;;
9234;SDS011;4652;42.716;23.218;2023-02-26T16:28:20;10.03;;;4.50;;
9234;SDS011;4652;42.716;23.218;2023-02-26T16:35:09;13.53;;;5.00;;
9234;SDS011;4652;42.716;23.218;2023-02-26T16:42:07;8.97;;;3.03;;
9234;SDS011;4652;42.716;23.218;2023-02-26T16:48:57;10.80;;;3.73;;
9234;SDS011;4652;42.716;23.218;2023-02-26T16:55:44;12.13;;;4.37;;
9234;SDS011;4652;42.716;23.218;2023-02-26T17:02:32;13.17;;;4.30;;
9234;SDS011;4652;42.716;23.218;2023-02-26T17:09:34;12.13;;;4.00;;
9234;SDS011;4652;42.716;23.218;2023-02-26T17:16:18;10.90;;;3.90;;
9234;SDS011;4652;42.716;23.218;2023-02-26T17:23:02;8.43;;;3.90;;
9234;SDS011;4652;42.716;23.218;2023-02-26T17:29:49;13.70;;;4.67;;
9234;SDS011;4652;42.716;23.218;2023-02-26T17:36:32;10.87;;;4.87;;
9234;SDS011;4652;42.716;23.218;2023-02-26T17:43:13;14.47;;;4.60;;
9234;SDS011;4652;42.716;23.218;2023-02-26T17:49:57;10.70;;;4.80;;
9234;SDS011;4652;42.716;23.218;2023-02-26T17:56:40;17.13;;;7.70;;
9234;SDS011;4652;42.716;23.218;2023-02-26T18:03:24;11.07;;;4.57;;
9234;SDS011;4652;42.716;23.218;2023-02-26T18:10:09;15.83;;;4.50;;
9234;SDS011;4652;42.716;23.218;2023-02-26T18:16:56;14.60;;;5.50;;
9234;SDS011;4652;42.716;23.218;2023-02-26T18:23:38;8.63;;;4.33;;
9234;SDS011;4652;42.716;23.218;2023-02-26T18:30:22;14.73;;;5.13;;
9234;SDS011;4652;42.716;23.218;2023-02-26T18:37:08;9.47;;;4.43;;
9234;SDS011;4652;42.716;23.218;2023-02-26T18:43:52;16.53;;;5.20;;
9234;SDS011;4652;42.716;23.218;2023-02-26T18:50:36;13.87;;;4.63;;
9234;SDS011;4652;42.716;23.218;2023-02-26T18:57:18;8.33;;;4.70;;
9234;SDS011;4652;42.716;23.218;2023-02-26T19:04:00;10.17;;;4.27;;
9234;SDS011;4652;42.716;23.218;2023-02-26T19:10:43;17.73;;;5.00;;
9234;SDS011;4652;42.716;23.218;2023-02-26T19:17:26;13.23;;;6.40;;
9234;SDS011;4652;42.716;23.218;2023-02-26T19:24:09;19.30;;;6.07;;
9234;SDS011;4652;42.716;23.218;2023-02-26T19:30:53;17.60;;;6.13;;
9234;SDS011;4652;42.716;23.218;2023-02-26T19:37:35;13.43;;;5.93;;
9234;SDS011;4652;42.716;23.218;2023-02-26T19:44:18;12.77;;;4.87;;
9234;SDS011;4652;42.716;23.218;2023-02-26T19:51:02;12.13;;;5.63;;
9234;SDS011;4652;42.716;23.218;2023-02-26T19:57:45;14.07;;;4.83;;
9234;SDS011;4652;42.716;23.218;2023-02-26T20:08:05;16.20;;;7.37;;
9234;SDS011;4652;42.716;23.218;2023-02-26T20:14:48;24.87;;;9.40;;
9234;SDS011;4652;42.716;23.218;2023-02-26T20:21:30;20.87;;;8.23;;
9234;SDS011;4652;42.716;23.218;2023-02-26T20:28:13;23.37;;;8.80;;
9234;SDS011;4652;42.716;23.218;2023-02-26T20:34:55;20.53;;;8.20;;
9234;SDS011;4652;42.716;23.218;2023-02-26T20:41:37;15.20;;;6.20;;
9234;SDS011;4652;42.716;23.218;2023-02-26T20:48:21;13.10;;;5.63;;
9234;SDS011;4652;42.716;23.218;2023-02-26T20:55:04;9.33;;;5.27;;
9234;SDS011;4652;42.716;23.218;2023-02-26T21:01:47;16.57;;;4.83;;
9234;SDS011;4652;42.716;23.218;2023-02-26T21:08:32;10.13;;;3.70;;
9234;SDS011;4652;42.716;23.218;2023-02-26T21:15:14;9.17;;;4.23;;
9234;SDS011;4652;42.716;23.218;2023-02-26T21:21:57;11.33;;;4.47;;
9234;SDS011;4652;42.716;23.218;2023-02-26T21:28:42;20.97;;;10.90;;
9234;SDS011;4652;42.716;23.218;2023-02-26T21:35:33;22.37;;;11.43;;
9234;SDS011;4652;42.716;23.218;2023-02-26T21:42:14;24.43;;;11.97;;
9234;SDS011;4652;42.716;23.218;2023-02-26T21:48:58;27.53;;;12.90;;
9234;SDS011;4652;42.716;23.218;2023-02-26T21:55:41;19.10;;;4.97;;
9234;SDS011;4652;42.716;23.218;2023-02-26T22:02:23;10.77;;;4.30;;
9234;SDS011;4652;42.716;23.218;2023-02-26T22:09:06;10.57;;;3.33;;
9234;SDS011;4652;42.716;23.218;2023-02-26T22:15:48;15.93;;;5.43;;
9234;SDS011;4652;42.716;23.218;2023-02-26T22:22:30;11.50;;;3.90;;
9234;SDS011;4652;42.716;23.218;2023-02-26T22:29:13;12.00;;;4.30;;
9234;SDS011;4652;42.716;23.218;2023-02-26T22:35:57;11.70;;;3.80;;
9234;SDS011;4652;42.716;23.218;2023-02-26T22:42:39;12.50;;;4.23;;
9234;SDS011;4652;42.716;23.218;2023-02-26T22:49:23;14.80;;;4.93;;
9234;SDS011;4652;42.716;23.218;2023-02-26T22:56:05;14.03;;;4.80;;
9234;SDS011;4652;42.716;23.218;2023-02-26T23:02:48;18.23;;;4.30;;
9234;SDS011;4652;42.716;23.218;2023-02-26T23:09:32;18.37;;;5.20;;
9234;SDS011;4652;42.716;23.218;2023-02-26T23:16:15;16.93;;;4.97;;
9234;SDS011;4652;42.716;23.218;2023-02-26T23:22:56;15.13;;;5.00;;
9234;SDS011;4652;42.716;23.218;2023-02-26T23:29:42;10.77;;;3.97;;
9234;SDS011;4652;42.716;23.218;2023-02-26T23:36:25;17.47;;;4.70;;
9234;SDS011;4652;42.716;23.218;2023-02-26T23:43:07;17.17;;;4.80;;
9234;SDS011;4652;42.716;23.218;2023-02-26T23:49:51;12.23;;;4.13;;
9234;SDS011;4652;42.716;23.218;2023-02-26T23:56:33;18.93;;;4.37;;
